Time;durP1;ratioP1;P1;durP2;ratioP2;P2;SDS_P1;SDS_P2;PMS_P1;PMS_P2;Temp;Humidity;BMP_temperature;BMP_pressure;BME280_temperature;BME280_humidity;BME280_pressure;Samples;Min_cycle;Max_cycle;Signal;HPM_P1;HPM_P2
2021/04/09 00:00:24;;;;;;;31.15;16.33;;;2.10;75.30;;;;;;5091700;28;20354;-70
2021/04/09 00:02:50;;;;;;;31.88;15.93;;;2.10;75.30;;;;;;5093846;28;20050;-70
2021/04/09 00:05:19;;;;;;;30.20;15.02;;;2.10;75.40;;;;;;5094109;28;20079;-70
2021/04/09 00:07:45;;;;;;;34.42;16.40;;;2.10;75.50;;;;;;5092612;28;20077;-72
2021/04/09 00:10:12;;;;;;;34.53;17.73;;;2.10;75.50;;;;;;5083077;28;20062;-72
2021/04/09 00:12:39;;;;;;;35.67;17.13;;;2.10;75.60;;;;;;5072229;28;20027;-72
2021/04/09 00:15:07;;;;;;;36.17;17.05;;;2.00;75.60;;;;;;5093599;28;20462;-72
2021/04/09 00:18:04;;;;;;;35.00;16.52;;;2.10;75.70;;;;;;5077789;28;20347;-72
2021/04/09 00:20:30;;;;;;;32.33;16.83;;;2.00;75.70;;;;;;5079268;28;20374;-70
2021/04/09 00:22:56;;;;;;;28.35;15.65;;;2.10;75.70;;;;;;5065346;28;20023;-70
2021/04/09 00:25:22;;;;;;;27.17;15.07;;;2.00;75.60;;;;;;5094166;28;20020;-70
2021/04/09 00:27:48;;;;;;;30.92;14.90;;;2.10;75.70;;;;;;5079614;28;20020;-69
2021/04/09 00:30:24;;;;;;;27.17;14.93;;;2.00;75.60;;;;;;5086243;28;20082;-70
2021/04/09 00:33:23;;;;;;;28.92;15.43;;;2.00;75.90;;;;;;5085685;28;20043;-81
2021/04/09 00:35:49;;;;;;;32.63;15.48;;;2.00;75.80;;;;;;5089908;28;20071;-69
2021/04/09 00:38:15;;;;;;;29.98;16.38;;;2.00;75.80;;;;;;5091279;28;20097;-70
2021/04/09 00:40:41;;;;;;;30.20;16.75;;;1.90;75.70;;;;;;5092972;28;20103;-71
2021/04/09 00:43:07;;;;;;;30.70;16.13;;;1.90;75.80;;;;;;5091536;28;20051;-71
2021/04/09 00:45:37;;;;;;;34.78;17.88;;;1.90;75.90;;;;;;5091692;28;20024;-74
2021/04/09 00:48:04;;;;;;;33.67;16.70;;;1.90;76.20;;;;;;5092759;28;20035;-72
2021/04/09 00:50:31;;;;;;;33.97;16.60;;;1.90;76.10;;;;;;5093055;28;20047;-72
2021/04/09 00:52:59;;;;;;;28.73;16.73;;;1.90;76.10;;;;;;5090475;28;20031;-71
2021/04/09 00:55:26;;;;;;;34.65;17.48;;;1.90;76.20;;;;;;5091546;28;20019;-71
2021/04/09 00:58:20;;;;;;;32.13;17.33;;;1.80;76.10;;;;;;5093400;28;20012;-73
2021/04/09 01:01:01;;;;;;;;;;;;;;;;;;;;;
2021/04/09 01:03:39;;;;;;;40.90;20.40;;;1.80;76.30;;;;;;5089059;28;20458;-72
2021/04/09 01:06:11;;;;;;;31.58;18.30;;;1.80;76.30;;;;;;5091228;28;20093;-72
2021/04/09 01:12:15;;;;;;;33.85;18.05;;;1.80;76.80;;;;;;5092279;28;20026;-72
2021/04/09 01:21:53;;;;;;;39.78;21.67;;;1.70;76.30;;;;;;5008529;28;20099;-72
2021/04/09 01:24:31;;;;;;;52.00;27.75;;;1.60;76.30;;;;;;5013281;28;20034;-73
2021/04/09 01:27:21;;;;;;;48.35;24.50;;;1.50;76.30;;;;;;5029686;28;20033;-73
2021/04/09 01:30:02;;;;;;;42.30;21.30;;;1.50;76.60;;;;;;5089837;28;20028;-77
2021/04/09 01:32:30;;;;;;;36.83;20.45;;;1.50;76.70;;;;;;5086334;28;20020;-71
2021/04/09 01:35:08;;;;;;;41.97;21.33;;;1.50;76.90;;;;;;5095613;28;20342;-74
2021/04/09 01:37:42;;;;;;;43.13;23.83;;;1.50;77.20;;;;;;5095764;28;20024;-71
2021/04/09 01:40:11;;;;;;;43.38;26.63;;;1.50;77.20;;;;;;5095316;28;20032;-71
2021/04/09 01:42:38;;;;;;;45.72;27.23;;;1.50;77.10;;;;;;5094467;28;20016;-70
2021/04/09 01:45:06;;;;;;;49.20;26.58;;;1.50;77.20;;;;;;5095086;28;20032;-73
2021/04/09 01:47:33;;;;;;;49.53;26.63;;;1.50;77.30;;;;;;5090243;28;20081;-70
2021/04/09 01:50:02;;;;;;;48.60;25.15;;;1.60;77.40;;;;;;5097289;28;20081;-72
2021/04/09 01:52:32;;;;;;;43.25;20.63;;;1.60;77.40;;;;;;5094812;28;20112;-71
2021/04/09 01:55:01;;;;;;;44.92;19.83;;;1.60;77.40;;;;;;5094699;28;20474;-71
2021/04/09 01:57:28;;;;;;;33.75;17.17;;;1.60;77.40;;;;;;5096562;28;20024;-71
2021/04/09 01:59:56;;;;;;;34.28;17.17;;;1.50;78.00;;;;;;5095765;28;20024;-73
2021/04/09 02:02:23;;;;;;;31.48;17.25;;;1.50;77.40;;;;;;5094687;28;20476;-71
2021/04/09 02:04:49;;;;;;;31.77;17.17;;;1.50;77.50;;;;;;5091979;28;20382;-71
2021/04/09 02:07:18;;;;;;;36.92;18.88;;;1.50;77.50;;;;;;5090687;28;20024;-73
2021/04/09 02:09:45;;;;;;;40.13;20.23;;;1.50;77.50;;;;;;5094553;28;20103;-72
2021/04/09 02:12:13;;;;;;;31.67;16.15;;;1.40;77.50;;;;;;5087426;28;20031;-70
2021/04/09 02:14:45;;;;;;;22.90;13.57;;;1.40;77.60;;;;;;5095584;28;20027;-68
2021/04/09 02:17:11;;;;;;;27.05;13.93;;;1.40;77.60;;;;;;5083455;28;20099;-74
2021/04/09 02:19:41;;;;;;;25.98;13.45;;;1.40;77.60;;;;;;5098738;28;20083;-87
2021/04/09 02:22:09;;;;;;;25.33;13.45;;;1.40;77.70;;;;;;5096610;28;20022;-74
2021/04/09 02:24:34;;;;;;;26.40;13.00;;;1.40;77.80;;;;;;5092338;28;20021;-73
2021/04/09 02:27:00;;;;;;;25.10;13.80;;;1.40;77.70;;;;;;5093609;28;20040;-70
2021/04/09 02:29:26;;;;;;;27.13;15.40;;;1.30;77.60;;;;;;5095567;28;20026;-76
2021/04/09 02:31:52;;;;;;;27.90;13.82;;;1.30;77.70;;;;;;5090221;28;20016;-72
2021/04/09 02:34:18;;;;;;;23.73;13.90;;;1.30;77.80;;;;;;5095856;28;20030;-71
2021/04/09 02:36:44;;;;;;;24.50;13.15;;;1.30;78.00;;;;;;5093690;28;20024;-72
2021/04/09 02:39:15;;;;;;;25.38;13.52;;;1.30;78.00;;;;;;5095491;28;20020;-71
2021/04/09 02:41:47;;;;;;;26.88;14.18;;;1.30;78.00;;;;;;5093161;28;20033;-73
2021/04/09 02:44:13;;;;;;;25.25;14.25;;;1.30;78.00;;;;;;5089886;28;20016;-74
2021/04/09 02:47:17;;;;;;;32.00;16.42;;;1.30;77.90;;;;;;5092110;28;20036;-74
2021/04/09 02:49:46;;;;;;;30.35;16.27;;;1.30;77.90;;;;;;5086079;28;20036;-72
2021/04/09 02:52:18;;;;;;;39.47;18.50;;;1.20;78.00;;;;;;5089633;28;20106;-72
2021/04/09 02:54:55;;;;;;;38.80;18.92;;;1.20;78.10;;;;;;5094998;28;20020;-72
2021/04/09 02:57:23;;;;;;;38.45;18.25;;;1.20;78.20;;;;;;5094685;28;20458;-73
2021/04/09 02:59:54;;;;;;;42.20;21.60;;;1.20;78.30;;;;;;5094976;28;20477;-73
2021/04/09 03:02:21;;;;;;;47.38;21.85;;;1.20;78.40;;;;;;5094494;28;20472;-77
2021/04/09 03:04:48;;;;;;;45.33;21.70;;;1.20;78.40;;;;;;5089065;28;20536;-73
2021/04/09 03:07:15;;;;;;;41.05;21.30;;;1.20;78.40;;;;;;5088026;28;20070;-72
2021/04/09 03:09:41;;;;;;;41.75;20.27;;;1.10;78.20;;;;;;5094249;28;20373;-72
2021/04/09 03:12:15;;;;;;;38.95;19.88;;;1.10;78.10;;;;;;5095705;28;20030;-72
2021/04/09 03:14:42;;;;;;;50.63;22.42;;;1.00;78.20;;;;;;5093883;28;20016;-73
2021/04/09 03:17:13;;;;;;;42.40;22.25;;;0.90;78.30;;;;;;5093738;28;20024;-72
2021/04/09 03:19:39;;;;;;;37.70;20.38;;;0.90;78.70;;;;;;5095165;28;20012;-72
2021/04/09 03:22:12;;;;;;;34.58;17.60;;;0.80;79.00;;;;;;5094978;28;20023;-72
2021/04/09 03:24:38;;;;;;;35.45;17.98;;;0.80;79.80;;;;;;5093920;28;20387;-72
2021/04/09 03:27:14;;;;;;;34.80;17.98;;;0.80;80.00;;;;;;5094998;28;20054;-72
2021/04/09 03:29:39;;;;;;;43.58;21.17;;;0.90;80.30;;;;;;5095053;28;20020;-72
2021/04/09 03:32:05;;;;;;;49.03;22.35;;;1.10;80.70;;;;;;5094719;28;20020;-72
2021/04/09 03:34:31;;;;;;;43.92;21.35;;;1.30;81.10;;;;;;5093603;28;20405;-72
2021/04/09 03:36:57;;;;;;;50.15;23.45;;;1.50;80.90;;;;;;5094628;28;20024;-72
2021/04/09 03:39:22;;;;;;;53.47;26.02;;;1.60;80.70;;;;;;5094983;28;20019;-73
2021/04/09 03:41:48;;;;;;;50.72;23.45;;;1.70;80.70;;;;;;5094493;28;20041;-73
2021/04/09 03:44:13;;;;;;;46.67;23.98;;;1.80;80.80;;;;;;5095064;28;20113;-72
2021/04/09 03:46:39;;;;;;;51.28;23.67;;;2.10;81.10;;;;;;5093097;28;20028;-72
2021/04/09 03:49:05;;;;;;;54.17;25.20;;;2.30;81.10;;;;;;5092962;28;20024;-73
2021/04/09 03:51:31;;;;;;;47.25;21.33;;;2.50;80.90;;;;;;5093583;28;20078;-73
2021/04/09 03:53:57;;;;;;;40.63;20.65;;;2.80;81.30;;;;;;5093025;28;20020;-73
2021/04/09 03:56:23;;;;;;;40.50;20.75;;;3.20;81.10;;;;;;5093168;28;20484;-72
2021/04/09 03:58:50;;;;;;;38.45;21.20;;;3.70;80.90;;;;;;5094105;28;20020;-74
2021/04/09 04:01:15;;;;;;;46.00;24.02;;;4.10;79.90;;;;;;5079892;28;20027;-73
2021/04/09 04:03:41;;;;;;;58.08;29.95;;;4.60;79.30;;;;;;5094202;28;20024;-75
2021/04/09 04:06:07;;;;;;;60.08;31.20;;;5.10;78.00;;;;;;5093987;28;20118;-72
2021/04/09 04:08:32;;;;;;;55.50;27.05;;;5.50;77.10;;;;;;5094282;28;20046;-72
2021/04/09 04:10:58;;;;;;;56.72;29.10;;;5.90;75.80;;;;;;5093792;28;20072;-73
2021/04/09 04:13:24;;;;;;;49.67;27.98;;;6.40;74.90;;;;;;5094473;28;20020;-72
2021/04/09 04:15:49;;;;;;;49.60;27.20;;;6.80;73.60;;;;;;5094217;28;20554;-71
2021/04/09 04:18:15;;;;;;;45.10;24.75;;;7.00;71.60;;;;;;5093867;28;20027;-72
2021/04/09 04:20:41;;;;;;;48.70;25.63;;;7.00;69.70;;;;;;5093923;28;20020;-72
2021/04/09 04:23:06;;;;;;;44.05;26.35;;;6.90;69.40;;;;;;5093761;28;20442;-72
2021/04/09 04:25:32;;;;;;;44.42;24.75;;;7.00;69.30;;;;;;5093724;28;20012;-72
2021/04/09 04:27:58;;;;;;;46.80;26.73;;;7.10;68.50;;;;;;5092204;28;20377;-72
2021/04/09 04:30:24;;;;;;;48.13;28.35;;;7.20;68.10;;;;;;5092991;28;20458;-72
2021/04/09 04:32:50;;;;;;;49.65;28.15;;;7.50;67.70;;;;;;5093417;28;20020;-74
2021/04/09 04:35:16;;;;;;;48.67;27.13;;;7.80;67.50;;;;;;5090828;28;20366;-72
2021/04/09 04:37:41;;;;;;;54.83;27.90;;;8.20;66.90;;;;;;5094140;28;20306;-72
2021/04/09 04:40:08;;;;;;;48.80;29.13;;;8.60;65.70;;;;;;5093084;28;20093;-72
2021/04/09 04:42:33;;;;;;;52.90;28.50;;;9.00;64.40;;;;;;5093395;28;20043;-73
2021/04/09 04:44:59;;;;;;;48.33;27.63;;;9.40;64.10;;;;;;5091028;28;20066;-75
2021/04/09 04:47:25;;;;;;;46.28;28.75;;;9.90;63.20;;;;;;5088387;28;20028;-75
2021/04/09 04:49:50;;;;;;;49.38;27.83;;;10.30;61.60;;;;;;5092299;28;20081;-78
2021/04/09 04:52:16;;;;;;;49.88;27.60;;;10.60;60.40;;;;;;5090385;28;20020;-73
2021/04/09 04:54:42;;;;;;;47.00;26.88;;;10.90;59.70;;;;;;5092823;28;20022;-75
2021/04/09 04:57:07;;;;;;;41.83;26.27;;;11.20;58.40;;;;;;5092065;28;20025;-77
2021/04/09 04:59:33;;;;;;;46.50;27.30;;;11.40;57.80;;;;;;5084442;28;20020;-73
2021/04/09 05:01:59;;;;;;;49.08;29.95;;;11.60;57.20;;;;;;5092125;28;20026;-75
2021/04/09 05:04:24;;;;;;;44.10;30.75;;;12.00;56.90;;;;;;5091775;28;20043;-67
2021/04/09 05:06:50;;;;;;;39.83;22.55;;;12.30;55.90;;;;;;5093219;28;20060;-67
2021/04/09 05:09:16;;;;;;;34.15;19.17;;;12.70;55.20;;;;;;5090230;28;20498;-68
2021/04/09 05:11:41;;;;;;;30.70;18.77;;;13.20;54.10;;;;;;5090786;28;20024;-70
2021/04/09 05:14:07;;;;;;;37.17;21.67;;;13.70;52.70;;;;;;5091871;28;20012;-69
2021/04/09 05:16:33;;;;;;;35.15;21.13;;;14.00;52.00;;;;;;5090104;28;20036;-80
2021/04/09 05:18:58;;;;;;;39.22;22.48;;;14.30;50.90;;;;;;5090636;28;20460;-70
2021/04/09 05:21:26;;;;;;;38.47;22.52;;;14.20;50.10;;;;;;5092748;28;20024;-68
2021/04/09 05:23:51;;;;;;;33.63;21.27;;;14.40;49.40;;;;;;5091990;28;20091;-68
2021/04/09 05:26:17;;;;;;;34.40;20.15;;;14.40;49.20;;;;;;5090672;28;20426;-68
2021/04/09 05:28:42;;;;;;;37.00;20.58;;;14.50;48.50;;;;;;5090705;28;20028;-68
2021/04/09 05:31:08;;;;;;;34.28;20.20;;;14.80;48.60;;;;;;5092321;28;20081;-80
2021/04/09 05:33:34;;;;;;;35.35;20.95;;;14.90;47.70;;;;;;5092518;28;20020;-70
2021/04/09 05:35:59;;;;;;;36.08;21.23;;;15.00;47.40;;;;;;5091412;28;20431;-73
2021/04/09 05:38:25;;;;;;;35.30;21.38;;;15.40;47.30;;;;;;5091674;28;20024;-72
2021/04/09 05:40:51;;;;;;;34.60;22.63;;;15.70;47.00;;;;;;5092305;28;20362;-73
2021/04/09 05:43:16;;;;;;;34.15;21.48;;;16.10;46.10;;;;;;5074540;28;20409;-72
2021/04/09 05:45:42;;;;;;;31.42;19.38;;;16.40;45.60;;;;;;5088974;28;20020;-72
2021/04/09 05:48:11;;;;;;;27.60;17.02;;;16.80;45.10;;;;;;5092033;28;20831;-72
2021/04/09 05:50:37;;;;;;;24.27;16.77;;;17.10;43.90;;;;;;5078664;28;20454;-72
2021/04/09 05:53:03;;;;;;;23.40;15.50;;;17.10;43.80;;;;;;5080918;28;20095;-74
2021/04/09 05:55:30;;;;;;;25.25;16.05;;;17.20;43.60;;;;;;5091246;28;20024;-73
2021/04/09 05:57:56;;;;;;;24.42;15.48;;;17.40;43.10;;;;;;5092416;28;20109;-73
2021/04/09 06:00:22;;;;;;;23.17;15.52;;;17.70;42.70;;;;;;5092323;28;20101;-76
2021/04/09 06:02:48;;;;;;;23.85;15.98;;;17.90;42.30;;;;;;5091326;28;20111;-73
2021/04/09 06:05:14;;;;;;;25.90;16.98;;;18.30;42.00;;;;;;5092047;28;20537;-73
2021/04/09 06:07:41;;;;;;;25.38;16.05;;;18.60;41.00;;;;;;5091055;28;20081;-73
2021/04/09 06:10:07;;;;;;;25.10;16.35;;;18.50;40.80;;;;;;5092230;28;20035;-73
2021/04/09 06:12:36;;;;;;;25.45;16.30;;;18.60;40.50;;;;;;5091875;28;20024;-73
2021/04/09 06:15:02;;;;;;;21.52;14.85;;;18.70;40.60;;;;;;5091888;28;20024;-75
2021/04/09 06:17:28;;;;;;;27.52;16.02;;;19.10;40.10;;;;;;5092436;28;20028;-72
2021/04/09 06:19:53;;;;;;;22.73;15.27;;;19.30;39.70;;;;;;5093211;28;20095;-72
2021/04/09 06:22:19;;;;;;;27.33;15.50;;;19.30;39.50;;;;;;5096456;28;20016;-71
2021/04/09 06:24:44;;;;;;;21.60;14.15;;;19.40;39.40;;;;;;5096169;28;20016;-72
2021/04/09 06:27:11;;;;;;;22.63;14.73;;;19.40;39.30;;;;;;5096008;28;20024;-72
2021/04/09 06:29:37;;;;;;;21.85;14.20;;;19.20;39.40;;;;;;5095851;28;20081;-72
2021/04/09 06:32:02;;;;;;;22.02;14.20;;;19.20;39.10;;;;;;5096633;28;20074;-72
2021/04/09 06:34:28;;;;;;;25.55;14.40;;;19.40;39.10;;;;;;5096510;28;20024;-72
2021/04/09 06:36:54;;;;;;;23.70;14.68;;;19.60;38.60;;;;;;5095512;28;20462;-82
2021/04/09 06:39:20;;;;;;;25.23;17.88;;;19.60;37.80;;;;;;5096214;28;20024;-72
2021/04/09 06:41:45;;;;;;;39.42;23.88;;;19.50;37.60;;;;;;5096016;28;20450;-72
2021/04/09 06:44:11;;;;;;;30.85;21.67;;;19.40;37.70;;;;;;5095810;28;20374;-73
2021/04/09 06:46:39;;;;;;;30.30;19.88;;;19.40;37.50;;;;;;5094248;28;20028;-72
2021/04/09 06:49:05;;;;;;;33.10;18.10;;;19.60;37.70;;;;;;5096247;28;20335;-72
2021/04/09 06:51:31;;;;;;;25.95;17.60;;;19.60;37.90;;;;;;5095795;28;20019;-71
2021/04/09 06:53:58;;;;;;;19.85;14.48;;;19.40;37.60;;;;;;5095539;28;20468;-72
2021/04/09 06:56:25;;;;;;;14.45;10.50;;;19.30;37.60;;;;;;5095738;28;20032;-72
2021/04/09 06:58:52;;;;;;;11.77;9.63;;;19.40;37.60;;;;;;5094049;28;20102;-73
2021/04/09 07:01:21;;;;;;;11.02;9.48;;;19.50;37.30;;;;;;5095147;28;20022;-72
2021/04/09 07:03:46;;;;;;;12.60;9.45;;;19.70;36.60;;;;;;5094407;28;20020;-72
2021/04/09 07:06:12;;;;;;;12.18;9.10;;;20.00;36.50;;;;;;5094948;28;20123;-72
2021/04/09 07:08:42;;;;;;;14.40;8.88;;;20.20;36.10;;;;;;5095508;28;20024;-71
2021/04/09 07:11:08;;;;;;;13.75;9.43;;;20.30;35.50;;;;;;5095094;28;20023;-71
2021/04/09 07:13:49;;;;;;;12.18;9.65;;;20.30;35.70;;;;;;5095233;28;20491;-71
2021/04/09 07:16:15;;;;;;;13.00;9.90;;;20.20;35.30;;;;;;5093962;28;20020;-73
2021/04/09 07:18:53;;;;;;;12.50;9.48;;;20.20;35.40;;;;;;5095400;28;20022;-72
2021/04/09 07:21:24;;;;;;;12.38;9.55;;;20.40;35.20;;;;;;5093677;28;20047;-71
2021/04/09 07:24:09;;;;;;;15.30;10.35;;;20.60;35.10;;;;;;5093819;28;20016;-71
2021/04/09 07:26:46;;;;;;;12.40;10.10;;;20.90;35.00;;;;;;5095046;28;20421;-71
2021/04/09 07:29:30;;;;;;;13.90;10.18;;;21.00;34.70;;;;;;5095013;28;20012;-71
2021/04/09 07:32:19;;;;;;;12.77;10.27;;;21.00;34.60;;;;;;5080853;28;20073;-71
2021/04/09 07:34:50;;;;;;;12.43;10.07;;;20.90;34.70;;;;;;5082718;28;20032;-72
2021/04/09 07:37:15;;;;;;;11.52;10.30;;;20.80;34.90;;;;;;5095037;28;20335;-72
2021/04/09 07:39:43;;;;;;;14.63;11.10;;;20.80;35.10;;;;;;5095004;28;20182;-72
2021/04/09 07:42:10;;;;;;;12.98;10.10;;;21.10;34.90;;;;;;5093568;28;20043;-72
2021/04/09 07:44:40;;;;;;;13.18;10.38;;;21.20;34.40;;;;;;5093199;28;20074;-71
2021/04/09 07:47:14;;;;;;;14.13;10.50;;;21.20;34.10;;;;;;5094298;28;20419;-71
2021/04/09 07:49:41;;;;;;;16.10;11.85;;;21.30;34.00;;;;;;5094959;28;20030;-72
2021/04/09 07:52:10;;;;;;;13.38;10.23;;;21.40;34.10;;;;;;5093177;28;20043;-71
2021/04/09 07:54:37;;;;;;;14.88;10.80;;;21.70;33.70;;;;;;5094269;28;20027;-71
2021/04/09 07:57:03;;;;;;;13.35;10.57;;;21.70;33.10;;;;;;5079908;28;20460;-71
2021/04/09 07:59:39;;;;;;;13.07;10.40;;;21.60;33.30;;;;;;5092873;28;20023;-71
2021/04/09 08:02:06;;;;;;;13.90;11.05;;;21.70;33.30;;;;;;5094729;28;20411;-71
2021/04/09 08:04:58;;;;;;;13.63;11.38;;;21.80;33.10;;;;;;5079230;28;20023;-71
2021/04/09 08:07:35;;;;;;;12.90;10.57;;;21.80;33.50;;;;;;5094115;28;20036;-74
2021/04/09 08:10:01;;;;;;;11.90;9.65;;;21.90;33.40;;;;;;5094601;28;20045;-72
2021/04/09 08:12:32;;;;;;;12.38;10.65;;;22.00;33.00;;;;;;5079782;28;20447;-73
2021/04/09 08:15:34;;;;;;;12.82;10.38;;;22.30;32.50;;;;;;5093759;28;20058;-72
2021/04/09 08:18:04;;;;;;;15.73;11.88;;;22.50;32.70;;;;;;5061323;28;20039;-72
2021/04/09 08:20:33;;;;;;;17.75;11.95;;;22.60;32.70;;;;;;5083636;28;20027;-72
2021/04/09 08:23:08;;;;;;;16.27;11.55;;;22.70;32.80;;;;;;5090610;28;20032;-72
2021/04/09 08:25:34;;;;;;;;;;;22.80;32.50;;;;;;5094960;28;20028;-71
2021/04/09 08:28:03;;;;;;;14.98;11.70;;;22.90;33.10;;;;;;5093753;28;19915;-71
2021/04/09 08:30:29;;;;;;;13.25;11.02;;;23.00;32.30;;;;;;5093899;28;20332;-71
2021/04/09 08:32:57;;;;;;;18.95;12.45;;;23.20;31.80;;;;;;5093594;28;20024;-72
2021/04/09 08:35:24;;;;;;;25.98;12.45;;;23.30;31.60;;;;;;5094108;28;20012;-72
2021/04/09 08:37:51;;;;;;;20.13;12.90;;;23.60;31.60;;;;;;5092857;28;20412;-73
2021/04/09 08:40:19;;;;;;;21.98;11.70;;;23.60;31.60;;;;;;5092268;28;20020;-71
2021/04/09 08:42:45;;;;;;;28.02;12.68;;;23.50;31.50;;;;;;5092063;28;20059;-70
2021/04/09 08:45:12;;;;;;;21.88;14.43;;;23.50;31.20;;;;;;5092737;28;20051;-70
2021/04/09 08:47:39;;;;;;;16.83;12.75;;;23.40;31.40;;;;;;5092826;28;20374;-72
2021/04/09 08:50:11;;;;;;;25.27;16.73;;;23.50;31.30;;;;;;5093407;28;20020;-70
2021/04/09 08:52:45;;;;;;;22.60;15.82;;;23.50;31.10;;;;;;5093819;28;20024;-71
2021/04/09 08:55:13;;;;;;;16.13;12.45;;;23.20;31.80;;;;;;5093088;28;20365;-71
2021/04/09 08:57:42;;;;;;;17.35;13.55;;;22.90;32.50;;;;;;5092040;28;20020;-71
2021/04/09 09:00:13;;;;;;;15.55;12.48;;;22.80;32.10;;;;;;5093687;28;20046;-71
2021/04/09 09:02:40;;;;;;;15.05;11.07;;;22.80;32.20;;;;;;5093373;28;20077;-71
2021/04/09 09:05:08;;;;;;;12.48;10.63;;;22.80;31.80;;;;;;5091827;28;20131;-72
2021/04/09 09:07:43;;;;;;;13.38;10.60;;;22.70;31.30;;;;;;5092004;28;20038;-71
2021/04/09 09:10:31;;;;;;;15.25;10.38;;;21.80;30.60;;;;;;5093082;28;20103;-71
2021/04/09 09:13:06;;;;;;;13.27;10.50;;;20.50;31.40;;;;;;5092820;28;20016;-72
2021/04/09 09:15:46;;;;;;;12.70;10.65;;;19.40;32.10;;;;;;5093543;28;20023;-72
2021/04/09 09:18:24;;;;;;;12.52;9.98;;;18.40;33.00;;;;;;5078856;28;20042;-71
2021/04/09 09:21:07;;;;;;;14.57;10.43;;;17.40;33.70;;;;;;5092056;28;20161;-72
2021/04/09 09:23:42;;;;;;;12.52;10.45;;;16.40;34.70;;;;;;5080781;28;20016;-72
2021/04/09 09:26:22;;;;;;;12.68;10.15;;;15.90;36.40;;;;;;5092650;28;20032;-72
2021/04/09 09:29:17;;;;;;;21.35;10.80;;;16.40;37.00;;;;;;5092992;28;20485;-72
2021/04/09 09:31:46;;;;;;;10.88;8.77;;;17.40;36.60;;;;;;5088462;28;20355;-72
2021/04/09 09:34:18;;;;;;;10.55;8.20;;;18.00;35.10;;;;;;5084194;28;20026;-72
2021/04/09 09:37:05;;;;;;;13.40;9.70;;;18.10;34.20;;;;;;5091034;28;20123;-72
2021/04/09 09:39:38;;;;;;;17.70;10.13;;;17.70;33.70;;;;;;5093065;28;20100;-72
2021/04/09 09:42:08;;;;;;;12.98;10.00;;;17.10;34.40;;;;;;5092969;28;20024;-72
2021/04/09 09:44:45;;;;;;;11.63;10.07;;;16.60;35.00;;;;;;5092689;28;20030;-72
2021/04/09 09:47:13;;;;;;;11.95;9.82;;;16.30;36.10;;;;;;5086657;28;20514;-72
2021/04/09 09:49:40;;;;;;;11.23;9.55;;;16.70;37.50;;;;;;5084971;28;20492;-73
2021/04/09 09:52:22;;;;;;;12.02;9.77;;;17.30;37.00;;;;;;5093154;28;20020;-72
2021/04/09 09:55:13;;;;;;;11.15;9.15;;;18.20;36.10;;;;;;5093822;28;20016;-72
2021/04/09 09:57:50;;;;;;;11.48;8.60;;;19.10;35.60;;;;;;5084910;28;20027;-70
2021/04/09 10:00:27;;;;;;;9.73;8.10;;;19.90;34.70;;;;;;5096590;28;20027;-70
2021/04/09 10:03:11;;;;;;;10.43;8.23;;;20.10;32.80;;;;;;5096343;28;20358;-74
2021/04/09 10:05:37;;;;;;;8.70;7.45;;;19.60;32.20;;;;;;5096886;28;20051;-72
2021/04/09 10:08:07;;;;;;;9.00;7.55;;;19.00;31.90;;;;;;5096656;28;20111;-72
2021/04/09 10:10:51;;;;;;;9.70;7.30;;;18.80;32.90;;;;;;5097042;28;20016;-70
2021/04/09 10:13:27;;;;;;;9.95;7.68;;;19.30;32.90;;;;;;5083221;28;20392;-70
2021/04/09 10:16:13;;;;;;;10.82;9.07;;;19.70;32.50;;;;;;5096327;28;20131;-70
2021/04/09 10:18:53;;;;;;;11.27;9.25;;;19.70;31.90;;;;;;5095902;28;20028;-71
2021/04/09 10:21:20;;;;;;;11.13;8.32;;;19.10;32.20;;;;;;5096099;28;20458;-72
2021/04/09 10:23:48;;;;;;;11.88;8.35;;;18.40;32.40;;;;;;5096450;28;20024;-72
2021/04/09 10:26:15;;;;;;;10.45;8.43;;;17.60;32.70;;;;;;5096309;28;20028;-72
2021/04/09 10:28:44;;;;;;;11.68;8.55;;;17.00;33.20;;;;;;5096077;28;20024;-72
2021/04/09 10:31:14;;;;;;;11.05;8.20;;;16.60;34.30;;;;;;5095703;28;20027;-72
2021/04/09 10:33:42;;;;;;;9.48;7.40;;;16.30;34.80;;;;;;5096049;28;20093;-72
2021/04/09 10:36:29;;;;;;;10.05;8.18;;;16.80;35.10;;;;;;5096272;28;20020;-72
2021/04/09 10:39:11;;;;;;;11.02;8.88;;;17.70;34.60;;;;;;5083577;28;20035;-74
2021/04/09 10:41:39;;;;;;;11.75;8.80;;;18.50;34.40;;;;;;5095785;28;20030;-71
2021/04/09 10:44:17;;;;;;;11.63;9.30;;;19.10;34.00;;;;;;5094714;28;20020;-71
2021/04/09 10:47:04;;;;;;;10.75;8.80;;;19.60;33.20;;;;;;5094509;28;20024;-70
2021/04/09 10:49:32;;;;;;;10.30;8.63;;;19.80;33.00;;;;;;5094683;28;20078;-71
2021/04/09 10:52:10;;;;;;;9.70;7.70;;;19.40;32.60;;;;;;5094239;28;20143;-70
2021/04/09 10:54:39;;;;;;;9.57;8.32;;;18.90;31.80;;;;;;5094826;28;20028;-72
2021/04/09 10:57:10;;;;;;;10.35;8.63;;;18.20;32.20;;;;;;5095434;28;20031;-72
2021/04/09 10:59:42;;;;;;;12.73;9.57;;;17.40;33.10;;;;;;5095712;28;20035;-71
2021/04/09 11:02:10;;;;;;;12.43;8.20;;;16.60;34.00;;;;;;5095817;28;20020;-71
2021/04/09 11:04:38;;;;;;;11.35;8.60;;;16.00;34.70;;;;;;5095009;28;20138;-71
2021/04/09 11:07:06;;;;;;;11.80;8.73;;;15.60;35.20;;;;;;5094609;28;20058;-71
2021/04/09 11:09:42;;;;;;;11.82;9.18;;;15.40;36.10;;;;;;5095399;28;20500;-70
2021/04/09 11:12:24;;;;;;;12.90;9.15;;;15.50;36.80;;;;;;5095626;28;20087;-71
2021/04/09 11:15:11;;;;;;;11.55;8.77;;;15.60;37.00;;;;;;5095307;28;20027;-70
2021/04/09 11:17:39;;;;;;;11.75;8.68;;;15.40;36.70;;;;;;5094973;28;20065;-71
2021/04/09 11:20:32;;;;;;;12.55;8.55;;;15.30;36.50;;;;;;5094983;28;20024;-70
2021/04/09 11:23:05;;;;;;;11.15;8.05;;;15.00;36.50;;;;;;5094770;28;20027;-71
2021/04/09 11:25:36;;;;;;;8.50;7.03;;;14.80;36.50;;;;;;5095210;28;20026;-70
2021/04/09 11:28:03;;;;;;;9.55;7.03;;;14.60;36.30;;;;;;5094922;28;20047;-70
2021/04/09 11:30:35;;;;;;;9.93;7.50;;;14.40;36.20;;;;;;5094824;28;20365;-70
2021/04/09 11:33:01;;;;;;;10.10;7.57;;;14.20;36.40;;;;;;5094498;28;20361;-70
2021/04/09 11:35:36;;;;;;;11.57;8.00;;;14.20;36.40;;;;;;5095019;28;20023;-71
2021/04/09 11:38:12;;;;;;;12.68;7.57;;;14.30;36.30;;;;;;5093333;28;20024;-71
2021/04/09 11:40:38;;;;;;;9.75;6.95;;;14.30;36.30;;;;;;5095134;28;20028;-71
2021/04/09 11:43:06;;;;;;;10.77;6.78;;;14.30;36.00;;;;;;5094439;28;20035;-74
2021/04/09 11:45:47;;;;;;;9.25;6.55;;;14.60;36.20;;;;;;5094807;28;20012;-71
2021/04/09 11:48:30;;;;;;;9.98;7.20;;;14.80;35.90;;;;;;5094133;28;20034;-71
2021/04/09 11:51:24;;;;;;;13.68;9.60;;;14.80;35.80;;;;;;5081895;28;20458;-72
2021/04/09 11:54:02;;;;;;;10.45;7.78;;;14.90;35.80;;;;;;5094563;28;20024;-71
2021/04/09 11:56:51;;;;;;;10.68;7.82;;;14.80;36.30;;;;;;5094548;28;20135;-71
2021/04/09 11:59:21;;;;;;;10.10;7.22;;;14.80;35.70;;;;;;5092853;28;20062;-71
2021/04/09 12:01:52;;;;;;;9.23;6.47;;;14.90;35.70;;;;;;5094487;28;20020;-71
2021/04/09 12:04:34;;;;;;;8.32;6.88;;;14.90;35.50;;;;;;5094119;28;20146;-71
2021/04/09 12:07:01;;;;;;;9.55;7.13;;;15.10;35.90;;;;;;5093946;28;20040;-72
2021/04/09 12:09:27;;;;;;;13.32;9.23;;;15.10;35.60;;;;;;5094123;28;20028;-71
2021/04/09 12:11:53;;;;;;;12.43;8.70;;;15.20;35.80;;;;;;5094583;28;20020;-71
2021/04/09 12:14:39;;;;;;;13.38;8.75;;;15.10;36.00;;;;;;5094262;28;20020;-71
2021/04/09 12:17:06;;;;;;;14.18;9.45;;;15.10;36.30;;;;;;5094364;28;20024;-71
2021/04/09 12:19:31;;;;;;;13.77;8.85;;;14.90;36.60;;;;;;5093897;28;20077;-72
2021/04/09 12:21:57;;;;;;;12.35;8.82;;;14.70;37.30;;;;;;5094439;28;20099;-71
2021/04/09 12:24:23;;;;;;;11.30;8.50;;;14.50;37.90;;;;;;5093836;28;20398;-71
2021/04/09 12:26:49;;;;;;;18.30;8.75;;;14.40;38.00;;;;;;5094163;28;20024;-71
2021/04/09 12:29:15;;;;;;;21.00;11.50;;;14.20;38.00;;;;;;5093945;28;20055;-71
2021/04/09 12:31:41;;;;;;;20.83;12.00;;;14.10;38.20;;;;;;5093676;28;20012;-71
2021/04/09 12:34:06;;;;;;;18.38;10.35;;;13.90;38.50;;;;;;5093887;28;20024;-71
2021/04/09 12:36:35;;;;;;;15.00;10.57;;;14.00;39.20;;;;;;5093376;28;20085;-71
2021/04/09 12:39:00;;;;;;;16.98;9.85;;;13.90;39.20;;;;;;5093598;28;20077;-71
2021/04/09 12:41:26;;;;;;;21.00;13.98;;;14.00;38.90;;;;;;5093399;28;20028;-72
2021/04/09 12:43:52;;;;;;;21.45;15.52;;;14.00;38.70;;;;;;5093657;28;20026;-71
2021/04/09 12:46:17;;;;;;;31.73;25.05;;;14.00;38.50;;;;;;5080499;28;20107;-71
2021/04/09 12:48:43;;;;;;;20.48;14.25;;;13.90;38.70;;;;;;5090905;28;20210;-72
2021/04/09 12:51:09;;;;;;;11.63;8.50;;;13.80;38.80;;;;;;5093319;28;20031;-71
2021/04/09 12:53:35;;;;;;;10.90;8.02;;;13.70;38.60;;;;;;5093605;28;20024;-71
2021/04/09 12:56:00;;;;;;;11.35;8.45;;;13.50;38.40;;;;;;5093525;28;20024;-71
2021/04/09 12:58:26;;;;;;;10.98;8.20;;;13.20;38.40;;;;;;5093291;28;20020;-71
2021/04/09 13:00:52;;;;;;;11.77;7.88;;;13.00;38.60;;;;;;5093291;28;20073;-71